createdAt,value
2022-10-30T00:00:58.410Z,89.59
2022-10-30T00:03:26.128Z,89.54
2022-10-30T00:05:55.256Z,89.69
2022-10-30T00:08:25.404Z,89.45
2022-10-30T00:10:53.553Z,90.20
2022-10-30T00:13:21.692Z,89.95
2022-10-30T00:15:51.129Z,89.89
2022-10-30T00:18:19.405Z,90.36
2022-10-30T00:20:47.379Z,90.25
2022-10-30T00:23:16.722Z,89.92
2022-10-30T00:25:44.427Z,90.22
2022-10-30T00:28:14.555Z,90.33
2022-10-30T00:30:42.317Z,90.38
2022-10-30T00:33:10.072Z,90.10
2022-10-30T00:35:37.858Z,90.08
2022-10-30T00:38:05.603Z,90.10
2022-10-30T00:40:34.753Z,90.05
2022-10-30T00:43:02.514Z,89.87
2022-10-30T00:45:30.230Z,90.06
2022-10-30T00:48:03.480Z,90.28
2022-10-30T00:50:33.193Z,90.56
2022-10-30T00:53:03.442Z,90.12
2022-10-30T00:55:33.778Z,89.59
2022-10-30T00:58:07.223Z,89.30
2022-10-30T01:00:36.890Z,89.89
2022-10-30T01:03:05.059Z,90.17
2022-10-30T01:05:33.932Z,90.04
2022-10-30T01:08:03.004Z,90.09
2022-10-30T01:10:31.084Z,89.91
2022-10-30T01:12:59.863Z,89.47
2022-10-30T01:15:32.412Z,89.24
2022-10-30T01:18:20.070Z,90.00
2022-10-30T01:21:05.603Z,89.80
2022-10-30T01:23:40.115Z,89.56
2022-10-30T01:26:15.107Z,89.69
2022-10-30T01:29:02.947Z,89.77
2022-10-30T01:31:41.311Z,89.46
2022-10-30T01:34:18.731Z,89.52
2022-10-30T01:36:49.890Z,89.87
2022-10-30T01:39:20.869Z,89.67
2022-10-30T01:41:48.590Z,90.16
2022-10-30T01:44:19.080Z,90.24
2022-10-30T01:47:00.791Z,90.28
2022-10-30T01:49:56.830Z,90.52
2022-10-30T01:52:31.352Z,90.14
2022-10-30T01:55:02.559Z,89.97
2022-10-30T01:57:36.467Z,89.57
2022-10-30T02:00:06.816Z,89.85
2022-10-30T02:03:02.919Z,89.86
2022-10-30T02:05:37.820Z,90.13
2022-10-30T02:08:06.111Z,90.27
2022-10-30T02:10:34.833Z,89.89
2022-10-30T02:13:02.967Z,89.80
2022-10-30T02:15:31.503Z,89.84
2022-10-30T02:18:01.081Z,90.12
2022-10-30T02:20:32.087Z,90.68
2022-10-30T02:22:59.943Z,90.07
2022-10-30T02:25:29.770Z,89.68
2022-10-30T02:27:57.444Z,89.64
2022-10-30T02:30:25.134Z,89.88
2022-10-30T02:32:52.805Z,89.49
2022-10-30T02:35:20.526Z,89.36
2022-10-30T02:37:50.167Z,89.70
2022-10-30T02:40:18.068Z,89.55
2022-10-30T02:42:45.753Z,89.52
2022-10-30T02:45:13.455Z,89.42
2022-10-30T02:47:41.126Z,89.21
2022-10-30T02:50:10.711Z,89.54
2022-10-30T02:52:38.447Z,89.31
2022-10-30T02:55:08.147Z,89.56
2022-10-30T02:57:35.882Z,89.77
2022-10-30T03:00:04.972Z,90.14
2022-10-30T03:02:32.676Z,90.20
2022-10-30T03:05:00.430Z,90.06
2022-10-30T03:07:28.137Z,89.89
2022-10-30T03:09:55.857Z,90.11
2022-10-30T03:12:24.963Z,89.90
2022-10-30T03:14:52.665Z,90.22
2022-10-30T03:17:20.447Z,90.13
2022-10-30T03:19:48.090Z,90.07
2022-10-30T03:22:15.788Z,89.90
2022-10-30T03:24:43.512Z,90.21
2022-10-30T03:27:11.214Z,90.09
2022-10-30T03:29:40.202Z,90.36
2022-10-30T03:32:10.180Z,90.03
2022-10-30T03:34:38.134Z,89.97
2022-10-30T03:37:06.087Z,90.18
2022-10-30T03:39:33.791Z,89.94
2022-10-30T03:42:03.546Z,90.24
2022-10-30T03:44:31.223Z,89.95
2022-10-30T03:47:00.317Z,89.94
2022-10-30T03:49:28.043Z,89.80
2022-10-30T03:51:55.738Z,89.85
2022-10-30T03:54:23.435Z,89.75
2022-10-30T03:56:51.091Z,89.88
2022-10-30T03:59:18.785Z,89.36
2022-10-30T04:01:46.614Z,89.55
2022-10-30T04:04:15.983Z,89.79
2022-10-30T04:06:43.654Z,89.70
2022-10-30T04:09:11.472Z,89.92
2022-10-30T04:11:39.146Z,89.55
2022-10-30T04:14:07.096Z,89.73
2022-10-30T04:16:34.826Z,89.45
2022-10-30T04:19:02.560Z,89.52
2022-10-30T04:21:31.598Z,89.45
2022-10-30T04:23:59.300Z,89.68
2022-10-30T04:26:26.996Z,89.71
2022-10-30T04:28:54.694Z,89.56
2022-10-30T04:31:22.453Z,89.75
2022-10-30T04:33:50.225Z,89.33
2022-10-30T04:36:18.856Z,89.80
2022-10-30T04:38:47.906Z,89.50
2022-10-30T04:41:15.621Z,89.43
2022-10-30T04:43:43.343Z,89.00
2022-10-30T04:46:11.065Z,89.16
2022-10-30T04:48:39.135Z,88.71
2022-10-30T04:51:07.128Z,89.48
2022-10-30T04:53:34.847Z,89.12
2022-10-30T04:56:03.907Z,89.02
2022-10-30T04:58:31.768Z,88.71
2022-10-30T05:01:03.138Z,88.82
2022-10-30T05:03:31.349Z,88.80
2022-10-30T05:06:00.980Z,88.61
2022-10-30T05:08:31.900Z,87.94
2022-10-30T05:10:59.774Z,88.39
2022-10-30T05:13:28.829Z,88.29
2022-10-30T05:15:56.527Z,87.90
2022-10-30T05:18:24.352Z,87.97
2022-10-30T05:20:52.027Z,87.99
2022-10-30T05:23:19.717Z,87.94
2022-10-30T05:25:47.425Z,88.10
2022-10-30T05:28:15.684Z,87.45
2022-10-30T05:30:45.151Z,87.79
2022-10-30T05:33:15.814Z,87.84
2022-10-30T05:35:43.545Z,87.86
2022-10-30T05:38:14.618Z,87.81
2022-10-30T05:40:42.292Z,87.83
2022-10-30T05:43:09.963Z,87.37
2022-10-30T05:45:37.675Z,87.51
2022-10-30T05:48:08.216Z,87.69
2022-10-30T05:50:36.068Z,87.74
2022-10-30T05:53:05.780Z,88.05
2022-10-30T05:55:33.979Z,87.75
2022-10-30T05:58:04.519Z,87.91
2022-10-30T06:00:34.236Z,88.26
2022-10-30T06:03:04.690Z,88.19
2022-10-30T06:05:35.141Z,88.40
2022-10-30T06:08:03.127Z,88.23
2022-10-30T06:10:31.290Z,88.08
2022-10-30T06:13:01.447Z,87.89
2022-10-30T06:15:30.744Z,88.29
2022-10-30T06:17:59.007Z,88.22
2022-10-30T06:20:28.864Z,88.51
2022-10-30T06:22:59.491Z,87.99
2022-10-30T06:25:28.309Z,87.63
2022-10-30T06:27:56.616Z,87.71
2022-10-30T06:30:24.590Z,87.55
2022-10-30T06:32:57.621Z,87.55
2022-10-30T06:35:25.740Z,87.51
2022-10-30T06:37:55.156Z,87.89
2022-10-30T06:40:24.377Z,88.12
2022-10-30T06:42:53.530Z,87.67
2022-10-30T06:45:22.580Z,87.53
2022-10-30T06:47:50.660Z,87.83
2022-10-30T06:50:20.218Z,87.73
2022-10-30T06:52:48.198Z,88.05
2022-10-30T06:55:16.274Z,88.34
2022-10-30T06:57:45.310Z,88.07
2022-10-30T07:00:14.080Z,87.60
2022-10-30T07:02:41.948Z,87.35
2022-10-30T07:05:09.910Z,88.07
2022-10-30T07:07:37.627Z,87.93
2022-10-30T07:10:05.910Z,88.17
2022-10-30T07:12:33.588Z,88.48
2022-10-30T07:15:02.630Z,88.72
2022-10-30T07:17:30.288Z,88.36
2022-10-30T07:19:57.962Z,88.32
2022-10-30T07:22:25.750Z,88.03
2022-10-30T07:24:53.479Z,88.20
2022-10-30T07:27:21.142Z,88.33
2022-10-30T07:29:48.807Z,88.35
2022-10-30T07:32:17.880Z,88.45
2022-10-30T07:34:45.544Z,88.53
2022-10-30T07:37:13.951Z,89.24
2022-10-30T07:39:42.117Z,89.00
2022-10-30T07:42:09.796Z,89.22
2022-10-30T07:44:37.454Z,89.95
2022-10-30T07:47:05.236Z,91.87
2022-10-30T07:49:34.294Z,92.14
2022-10-30T07:52:01.963Z,91.34
2022-10-30T07:54:30.995Z,90.40
2022-10-30T07:56:58.970Z,92.08
2022-10-30T07:59:26.803Z,91.35
2022-10-30T08:01:54.591Z,90.92
2022-10-30T08:04:22.389Z,94.25
2022-10-30T08:06:51.388Z,93.52
2022-10-30T08:09:19.089Z,94.46
2022-10-30T08:11:46.787Z,96.37
2022-10-30T08:14:14.472Z,95.91
2022-10-30T08:16:42.168Z,95.76
2022-10-30T08:19:09.862Z,96.21
2022-10-30T08:21:37.523Z,96.59
2022-10-30T08:24:07.165Z,95.77
2022-10-30T08:26:35.293Z,95.78
2022-10-30T08:29:04.057Z,94.13
2022-10-30T08:31:31.731Z,94.57
2022-10-30T08:33:59.722Z,94.47
2022-10-30T08:36:27.402Z,94.21
2022-10-30T08:38:55.063Z,94.20
2022-10-30T08:41:24.220Z,94.12
2022-10-30T08:43:51.947Z,94.73
2022-10-30T08:46:19.640Z,94.25
2022-10-30T08:48:47.333Z,94.87
2022-10-30T08:51:15.043Z,94.18
2022-10-30T08:53:42.719Z,94.60
2022-10-30T08:56:10.369Z,94.25
2022-10-30T08:58:39.383Z,93.87
2022-10-30T09:01:07.203Z,94.36
2022-10-30T09:03:34.923Z,93.76
2022-10-30T09:06:05.246Z,93.88
2022-10-30T09:08:33.060Z,93.16
2022-10-30T09:11:00.788Z,93.44
2022-10-30T09:13:28.552Z,94.09
2022-10-30T09:16:00.578Z,93.82
2022-10-30T09:18:28.608Z,92.55
2022-10-30T09:20:56.316Z,93.70
2022-10-30T09:23:23.996Z,92.54
2022-10-30T09:25:51.635Z,91.52
2022-10-30T09:28:21.738Z,92.48
2022-10-30T09:30:52.834Z,92.36
2022-10-30T09:33:21.855Z,92.20
2022-10-30T09:35:49.520Z,92.40
2022-10-30T09:38:17.202Z,92.48
2022-10-30T09:41:00.973Z,91.59
2022-10-30T09:43:35.283Z,91.63
2022-10-30T09:46:23.651Z,90.84
2022-10-30T09:49:05.501Z,90.12
2022-10-30T09:51:59.118Z,90.16
2022-10-30T09:54:38.036Z,90.39
2022-10-30T09:57:08.041Z,90.30
2022-10-30T09:59:42.246Z,89.27
2022-10-30T10:02:22.399Z,89.92
2022-10-30T10:04:53.700Z,90.66
2022-10-30T10:07:23.591Z,90.09
2022-10-30T10:09:53.832Z,89.93
2022-10-30T10:12:24.972Z,89.94
2022-10-30T10:14:53.468Z,90.48
2022-10-30T10:17:25.860Z,89.65
2022-10-30T10:20:00.088Z,90.48
2022-10-30T10:22:34.271Z,89.94
2022-10-30T10:25:03.683Z,90.24
2022-10-30T10:27:46.062Z,90.02
2022-10-30T10:30:17.119Z,90.59
2022-10-30T10:32:53.142Z,90.53
2022-10-30T10:35:31.281Z,89.89
2022-10-30T10:38:04.061Z,90.27
2022-10-30T10:40:43.860Z,89.62
2022-10-30T10:43:20.452Z,90.94
2022-10-30T10:45:53.956Z,90.94
2022-10-30T10:48:32.230Z,91.32
2022-10-30T10:51:04.140Z,91.12
2022-10-30T10:53:38.962Z,91.81
2022-10-30T10:56:07.003Z,91.53
2022-10-30T10:58:39.899Z,91.11
2022-10-30T11:01:14.511Z,91.20
2022-10-30T11:03:48.827Z,91.59
2022-10-30T11:06:22.427Z,91.74
2022-10-30T11:08:50.956Z,91.77
2022-10-30T11:11:18.686Z,90.76
2022-10-30T11:13:46.576Z,90.83
2022-10-30T11:16:22.918Z,90.78
2022-10-30T11:18:53.523Z,90.05
2022-10-30T11:21:24.420Z,91.31
2022-10-30T11:23:53.328Z,90.77
2022-10-30T11:26:28.400Z,90.94
2022-10-30T11:28:58.188Z,90.48
2022-10-30T11:31:34.046Z,90.63
2022-10-30T11:34:35.553Z,90.21
2022-10-30T11:37:06.135Z,89.57
2022-10-30T11:39:35.207Z,89.80
2022-10-30T11:42:07.375Z,90.20
2022-10-30T11:44:38.002Z,90.42
2022-10-30T11:47:06.732Z,89.88
2022-10-30T11:49:39.195Z,89.39
2022-10-30T11:52:09.394Z,87.90
2022-10-30T11:54:38.975Z,89.18
2022-10-30T11:57:17.740Z,88.54
2022-10-30T11:59:47.096Z,88.89
2022-10-30T12:02:23.231Z,88.07
2022-10-30T12:04:51.819Z,87.88
2022-10-30T12:07:27.699Z,87.71
2022-10-30T12:09:55.655Z,87.92
2022-10-30T12:12:25.207Z,87.69
2022-10-30T12:14:53.446Z,87.90
2022-10-30T12:17:22.115Z,87.21
2022-10-30T12:19:51.730Z,86.91
2022-10-30T12:22:29.910Z,87.67
2022-10-30T12:24:58.461Z,86.95
2022-10-30T12:27:26.857Z,86.92
2022-10-30T12:30:09.859Z,86.95
2022-10-30T12:32:43.017Z,86.68
2022-10-30T12:35:31.630Z,85.93
2022-10-30T12:38:03.230Z,86.49
2022-10-30T12:40:31.876Z,86.12
2022-10-30T12:43:04.053Z,86.86
2022-10-30T12:45:33.638Z,87.92
2022-10-30T12:48:04.662Z,86.43
2022-10-30T12:50:37.494Z,86.76
2022-10-30T12:53:16.934Z,86.98
2022-10-30T12:55:46.956Z,87.15
2022-10-30T12:58:20.228Z,86.63
2022-10-30T13:00:59.722Z,86.65
2022-10-30T13:03:31.236Z,86.72
2022-10-30T13:06:04.043Z,87.60
2022-10-30T13:08:35.203Z,87.37
2022-10-30T13:11:06.255Z,87.74
2022-10-30T13:13:37.366Z,87.30
2022-10-30T13:16:09.479Z,86.99
2022-10-30T13:18:37.827Z,86.79
2022-10-30T13:21:15.032Z,87.54
2022-10-30T13:23:50.811Z,87.54
2022-10-30T13:26:24.407Z,86.61
2022-10-30T13:28:55.249Z,85.87
2022-10-30T13:31:28.563Z,86.33
2022-10-30T13:34:01.906Z,86.23
2022-10-30T13:36:35.861Z,86.12
2022-10-30T13:39:20.662Z,86.71
2022-10-30T13:42:04.305Z,86.53
2022-10-30T13:44:40.721Z,87.71
2022-10-30T13:47:17.040Z,86.83
2022-10-30T13:49:59.058Z,86.57
2022-10-30T13:52:28.167Z,86.45
2022-10-30T13:55:00.747Z,86.63
2022-10-30T13:57:31.129Z,86.22
2022-10-30T14:00:08.064Z,86.12
2022-10-30T14:03:03.428Z,86.25
2022-10-30T14:05:37.495Z,86.17
2022-10-30T14:08:09.356Z,85.78
2022-10-30T14:10:45.123Z,86.05
2022-10-30T14:13:18.421Z,85.52
2022-10-30T14:15:47.528Z,86.03
2022-10-30T14:18:32.433Z,87.05
2022-10-30T14:21:26.915Z,87.13
2022-10-30T14:24:03.240Z,87.13
2022-10-30T14:26:32.555Z,87.27
2022-10-30T14:29:00.218Z,88.14
2022-10-30T14:31:35.517Z,87.95
2022-10-30T14:34:03.630Z,88.44
2022-10-30T14:36:49.655Z,88.84
2022-10-30T14:39:29.409Z,89.12
2022-10-30T14:42:06.033Z,89.62
2022-10-30T14:44:47.532Z,89.84
2022-10-30T14:47:33.612Z,90.02
2022-10-30T14:50:03.346Z,89.89
2022-10-30T14:52:38.325Z,89.29
2022-10-30T14:55:24.291Z,89.55
2022-10-30T14:57:57.694Z,90.30
2022-10-30T15:00:39.203Z,90.54
2022-10-30T15:03:10.332Z,90.63
2022-10-30T15:05:47.656Z,90.83
2022-10-30T15:08:27.327Z,90.78
2022-10-30T15:11:12.908Z,90.89
2022-10-30T15:13:48.188Z,90.70
2022-10-30T15:16:17.165Z,90.81
2022-10-30T15:18:48.099Z,91.09
2022-10-30T15:21:21.191Z,91.15
2022-10-30T15:23:48.906Z,91.28
2022-10-30T15:26:20.830Z,91.17
2022-10-30T15:28:51.871Z,91.26
2022-10-30T15:31:23.907Z,90.79
2022-10-30T15:33:54.074Z,91.23
2022-10-30T15:36:23.219Z,91.17
2022-10-30T15:39:05.826Z,91.12
2022-10-30T15:41:35.927Z,90.95
2022-10-30T15:44:05.497Z,91.08
2022-10-30T15:46:33.291Z,90.92
2022-10-30T15:49:03.097Z,91.16
2022-10-30T15:51:30.791Z,91.26
2022-10-30T15:53:59.842Z,91.42
2022-10-30T15:56:30.009Z,91.37
2022-10-30T15:58:59.841Z,91.50
2022-10-30T16:01:32.787Z,91.57
2022-10-30T16:04:00.551Z,91.86
2022-10-30T16:06:30.446Z,91.87
2022-10-30T16:08:58.601Z,91.86
2022-10-30T16:11:27.098Z,91.78
2022-10-30T16:13:54.826Z,91.80
2022-10-30T16:16:27.551Z,91.94
2022-10-30T16:18:59.440Z,91.83
2022-10-30T16:21:29.542Z,91.74
2022-10-30T16:24:00.749Z,91.79
2022-10-30T16:26:32.700Z,91.72
2022-10-30T16:29:04.495Z,91.84
2022-10-30T16:31:35.532Z,91.38
2022-10-30T16:34:06.602Z,91.57
2022-10-30T16:36:35.076Z,91.50
2022-10-30T16:39:05.412Z,91.37
2022-10-30T16:41:33.752Z,90.86
2022-10-30T16:44:16.574Z,91.08
2022-10-30T16:46:50.930Z,90.82
2022-10-30T16:49:21.039Z,90.87
2022-10-30T16:51:58.231Z,90.98
2022-10-30T16:54:29.299Z,90.94
2022-10-30T16:56:58.221Z,90.97
2022-10-30T16:59:29.700Z,90.91
2022-10-30T17:02:00.696Z,90.57
2022-10-30T17:04:31.101Z,90.59
2022-10-30T17:07:18.566Z,90.36
2022-10-30T17:09:48.177Z,90.00
2022-10-30T17:12:20.359Z,90.00
2022-10-30T17:14:51.029Z,89.77
2022-10-30T17:17:30.785Z,89.97
2022-10-30T17:20:13.623Z,89.75
2022-10-30T17:22:41.333Z,90.06
2022-10-30T17:25:19.434Z,89.63
2022-10-30T17:27:49.115Z,89.25
2022-10-30T17:30:31.760Z,88.78
2022-10-30T17:32:59.688Z,88.41
2022-10-30T17:35:28.974Z,87.98
2022-10-30T17:37:59.748Z,88.14
2022-10-30T17:40:30.540Z,87.91
2022-10-30T17:42:58.207Z,88.18
2022-10-30T17:45:25.873Z,87.73
2022-10-30T17:47:53.572Z,87.50
2022-10-30T17:50:21.271Z,88.06
2022-10-30T17:52:50.286Z,87.82
2022-10-30T17:55:24.909Z,87.34
2022-10-30T17:57:52.880Z,87.57
2022-10-30T18:00:20.555Z,87.61
2022-10-30T18:02:48.507Z,87.55
2022-10-30T18:05:18.929Z,87.10
2022-10-30T18:07:46.698Z,87.23
2022-10-30T18:10:15.977Z,87.01
2022-10-30T18:12:44.879Z,87.15
2022-10-30T18:15:25.686Z,87.23
2022-10-30T18:17:53.414Z,87.39
2022-10-30T18:20:21.473Z,87.72
2022-10-30T18:22:49.306Z,87.32
2022-10-30T18:25:22.595Z,87.39
2022-10-30T18:27:50.363Z,87.67
2022-10-30T18:30:18.598Z,87.60
2022-10-30T18:32:46.356Z,87.33
2022-10-30T18:35:16.672Z,87.26
2022-10-30T18:37:44.384Z,86.79
2022-10-30T18:40:12.627Z,86.82
2022-10-30T18:42:42.043Z,87.06
2022-10-30T18:45:18.940Z,86.66
2022-10-30T18:47:47.012Z,87.00
2022-10-30T18:50:14.992Z,86.51
2022-10-30T18:52:42.832Z,86.93
2022-10-30T18:55:19.205Z,86.78
2022-10-30T18:57:48.914Z,86.76
2022-10-30T19:00:18.917Z,86.53
2022-10-30T19:02:47.162Z,86.75
2022-10-30T19:05:20.621Z,86.78
2022-10-30T19:07:48.277Z,86.87
2022-10-30T19:10:15.982Z,86.57
2022-10-30T19:13:04.244Z,86.57
2022-10-30T19:15:33.982Z,86.72
2022-10-30T19:18:03.053Z,86.67
2022-10-30T19:20:50.505Z,86.48
2022-10-30T19:23:20.657Z,86.85
2022-10-30T19:25:48.809Z,86.02
2022-10-30T19:28:17.912Z,86.29
2022-10-30T19:30:50.143Z,86.26
2022-10-30T19:33:18.836Z,86.16
2022-10-30T19:35:46.537Z,85.99
2022-10-30T19:38:14.591Z,85.66
2022-10-30T19:40:44.160Z,85.76
2022-10-30T19:43:12.415Z,85.77
2022-10-30T19:45:40.115Z,86.06
2022-10-30T19:48:13.036Z,85.80
2022-10-30T19:50:42.414Z,85.58
2022-10-30T19:53:10.573Z,85.70
2022-10-30T19:55:39.908Z,85.12
2022-10-30T19:58:10.962Z,85.36
2022-10-30T20:00:40.315Z,85.29
2022-10-30T20:03:10.628Z,85.09
2022-10-30T20:05:40.291Z,85.26
2022-10-30T20:08:09.887Z,85.34
2022-10-30T20:10:39.190Z,85.29
2022-10-30T20:13:07.738Z,85.02
2022-10-30T20:15:35.623Z,85.19
2022-10-30T20:18:04.027Z,85.08
2022-10-30T20:20:35.071Z,85.21
2022-10-30T20:23:05.077Z,84.81
2022-10-30T20:25:32.756Z,84.86
2022-10-30T20:28:06.972Z,84.74
2022-10-30T20:30:34.937Z,84.90
2022-10-30T20:33:04.114Z,84.23
2022-10-30T20:35:33.138Z,84.65
2022-10-30T20:38:04.547Z,84.76
2022-10-30T20:40:32.262Z,84.29
2022-10-30T20:43:02.900Z,84.54
2022-10-30T20:45:30.998Z,84.44
2022-10-30T20:47:58.902Z,84.25
2022-10-30T20:50:26.747Z,84.19
2022-10-30T20:52:56.259Z,84.26
2022-10-30T20:55:23.982Z,84.01
2022-10-30T20:57:51.857Z,84.03
2022-10-30T21:00:19.865Z,83.56
2022-10-30T21:02:47.541Z,83.58
2022-10-30T21:05:30.626Z,83.36
2022-10-30T21:08:07.297Z,83.25
2022-10-30T21:10:37.425Z,83.26
2022-10-30T21:13:08.875Z,83.40
2022-10-30T21:15:39.279Z,83.43
2022-10-30T21:18:07.092Z,83.38
2022-10-30T21:20:34.772Z,83.18
2022-10-30T21:23:02.412Z,82.95
2022-10-30T21:25:32.114Z,83.09
2022-10-30T21:27:59.994Z,83.15
2022-10-30T21:30:31.036Z,82.85
2022-10-30T21:32:59.574Z,83.23
2022-10-30T21:35:27.662Z,82.93
2022-10-30T21:37:55.398Z,82.89
2022-10-30T21:40:23.194Z,83.08
2022-10-30T21:42:52.178Z,82.94
2022-10-30T21:45:19.807Z,82.49
2022-10-30T21:47:47.491Z,82.49
2022-10-30T21:50:15.414Z,82.67
2022-10-30T21:52:43.076Z,82.63
2022-10-30T21:55:10.877Z,82.36
2022-10-30T21:57:38.518Z,82.25
2022-10-30T22:00:09.101Z,82.17
2022-10-30T22:02:36.775Z,82.28
2022-10-30T22:05:04.558Z,82.28
2022-10-30T22:07:32.216Z,82.25
2022-10-30T22:09:59.875Z,82.27
2022-10-30T22:12:27.543Z,82.01
2022-10-30T22:14:55.188Z,82.34
2022-10-30T22:17:24.350Z,82.04
2022-10-30T22:19:51.983Z,82.09
2022-10-30T22:22:19.615Z,81.89
2022-10-30T22:24:47.264Z,81.69
2022-10-30T22:27:14.920Z,81.91
2022-10-30T22:29:42.604Z,81.82
2022-10-30T22:32:10.245Z,81.81
2022-10-30T22:34:39.408Z,82.07
2022-10-30T22:37:07.205Z,81.85
2022-10-30T22:39:34.872Z,81.86
2022-10-30T22:42:04.506Z,81.93
2022-10-30T22:44:32.179Z,81.76
2022-10-30T22:46:59.837Z,81.42
2022-10-30T22:49:27.504Z,81.29
2022-10-30T22:51:56.551Z,81.38
2022-10-30T22:54:24.454Z,81.22
2022-10-30T22:56:52.104Z,81.65
2022-10-30T22:59:19.783Z,81.33
2022-10-30T23:01:47.514Z,81.66
2022-10-30T23:04:16.036Z,81.50
2022-10-30T23:06:44.111Z,81.40
2022-10-30T23:09:17.539Z,81.48
2022-10-30T23:11:46.085Z,81.07
2022-10-30T23:14:15.200Z,81.53
2022-10-30T23:16:43.140Z,81.50
2022-10-30T23:19:11.262Z,80.83
2022-10-30T23:21:39.432Z,81.15
2022-10-30T23:24:07.880Z,80.98
2022-10-30T23:26:37.177Z,81.36
2022-10-30T23:29:05.260Z,81.40
2022-10-30T23:31:36.204Z,81.15
2022-10-30T23:34:06.840Z,81.44
2022-10-30T23:36:34.774Z,81.43
2022-10-30T23:39:08.011Z,81.26
2022-10-30T23:41:37.119Z,81.18
2022-10-30T23:44:06.393Z,80.98
2022-10-30T23:46:35.411Z,81.47
2022-10-30T23:49:05.137Z,81.47
2022-10-30T23:51:33.314Z,81.45
2022-10-30T23:54:01.017Z,81.33
2022-10-30T23:56:30.360Z,81.20
2022-10-30T23:58:59.403Z,81.44
